Terminal Aerodrome Forecast
Issued by NWS

Home | Current Version | Previous Version | Graphics & Text | Print | Product List | Glossary On
Versions: 1 2 3 4 5 6 7 8 9 10 11 12 13 14 15 16 17 18 19
000
FTUS45 KGGW 051400 AAA
TAFSDY
TAF AMD
KSDY 051434Z 0515/0612 34013KT 3SM FU VCSH SCT027 BKN040
     FM051900 35013KT P6SM VCSH BKN050 BKN070
     FM060000 36011KT P6SM BKN050
     FM060300 VRB05KT P6SM BKN070
      AMD LTD TO CLD VIS AND WIND=

USA.gov is the U.S. government's official web portal to all federal, state and local government web resources and services.